createdAt,value
2023-04-21T00:04:52.753Z,7.09
2023-04-21T00:09:55.909Z,7.02
2023-04-21T00:14:58.801Z,6.96
2023-04-21T00:20:01.700Z,6.93
2023-04-21T00:25:05.425Z,6.86
2023-04-21T00:30:09.341Z,6.81
2023-04-21T00:35:12.361Z,6.73
2023-04-21T00:40:15.266Z,6.62
2023-04-21T00:45:18.168Z,6.48
2023-04-21T00:50:21.275Z,6.35
2023-04-21T00:55:25.458Z,6.24
2023-04-21T01:00:29.135Z,6.18
2023-04-21T01:05:32.653Z,6.12
2023-04-21T01:10:35.561Z,6.06
2023-04-21T01:15:38.669Z,5.96
2023-04-21T01:20:41.569Z,5.86
2023-04-21T01:25:44.580Z,5.77
2023-04-21T01:30:47.593Z,5.69
2023-04-21T01:35:51.089Z,5.65
2023-04-21T01:40:54.483Z,5.61
2023-04-21T01:45:57.492Z,5.60
2023-04-21T01:51:00.749Z,5.56
2023-04-21T01:56:03.954Z,5.51
2023-04-21T02:01:07.006Z,5.45
2023-04-21T02:06:10.067Z,5.41
2023-04-21T02:11:12.966Z,5.33
2023-04-21T02:16:16.000Z,5.22
2023-04-21T02:21:18.982Z,5.12
2023-04-21T02:26:21.894Z,5.03
2023-04-21T02:31:24.843Z,4.92
2023-04-21T02:36:28.001Z,4.78
2023-04-21T02:41:30.905Z,4.66
2023-04-21T02:46:33.993Z,4.54
2023-04-21T02:51:37.581Z,4.46
2023-04-21T02:56:40.549Z,4.41
2023-04-21T03:01:43.729Z,4.36
2023-04-21T03:06:46.967Z,4.31
2023-04-21T03:11:49.966Z,4.26
2023-04-21T03:16:52.989Z,4.20
2023-04-21T03:21:55.993Z,4.19
2023-04-21T03:26:59.398Z,4.17
2023-04-21T03:32:02.542Z,4.15
2023-04-21T03:37:05.756Z,4.18
2023-04-21T03:42:08.618Z,4.31
2023-04-21T03:47:11.527Z,4.59
2023-04-21T03:52:14.428Z,5.00
2023-04-21T03:57:17.642Z,5.33
2023-04-21T04:02:20.825Z,6.13
2023-04-21T04:07:23.968Z,7.47
2023-04-21T04:12:27.091Z,8.81
2023-04-21T04:17:30.097Z,9.71
2023-04-21T04:22:34.005Z,10.28
2023-04-21T04:27:37.120Z,10.64
2023-04-21T04:32:40.213Z,11.07
2023-04-21T04:37:43.333Z,11.62
2023-04-21T04:42:47.259Z,12.46
2023-04-21T04:47:50.307Z,13.41
2023-04-21T04:52:53.273Z,14.13
2023-04-21T04:57:56.275Z,14.92
2023-04-21T05:02:59.490Z,15.81
2023-04-21T05:08:02.610Z,16.98
2023-04-21T05:13:05.567Z,17.88
2023-04-21T05:18:08.696Z,18.65
2023-04-21T05:23:11.725Z,19.80
2023-04-21T05:28:15.541Z,20.82
2023-04-21T05:33:19.788Z,21.06
2023-04-21T05:38:22.897Z,20.72
2023-04-21T05:43:25.915Z,20.20
2023-04-21T05:48:29.009Z,20.15
2023-04-21T05:53:32.121Z,20.57
2023-04-21T05:58:36.054Z,21.05
2023-04-21T06:03:39.238Z,21.61
2023-04-21T06:08:42.462Z,21.91
2023-04-21T06:13:45.883Z,22.02
2023-04-21T06:18:48.887Z,22.00
2023-04-21T06:23:51.891Z,21.78
2023-04-21T06:28:55.129Z,21.55
2023-04-21T06:33:58.104Z,21.59
2023-04-21T06:39:01.010Z,21.74
2023-04-21T06:44:04.016Z,22.42
2023-04-21T06:49:10.327Z,23.26
2023-04-21T06:54:13.414Z,23.82
2023-04-21T06:59:16.521Z,23.84
2023-04-21T07:04:19.850Z,23.60
2023-04-21T07:09:22.952Z,23.58
2023-04-21T07:14:26.316Z,23.57
2023-04-21T07:19:29.277Z,23.62
2023-04-21T07:24:34.525Z,23.68
2023-04-21T07:29:37.760Z,23.68
2023-04-21T07:34:40.857Z,23.80
2023-04-21T07:39:43.863Z,23.76
2023-04-21T07:44:47.088Z,23.51
2023-04-21T07:49:50.482Z,23.45
2023-04-21T07:54:53.794Z,23.15
2023-04-21T07:59:56.801Z,23.13
2023-04-21T08:04:59.947Z,22.97
2023-04-21T08:10:03.881Z,22.83
2023-04-21T08:15:08.528Z,22.61
2023-04-21T08:20:12.723Z,22.39
2023-04-21T08:25:15.958Z,22.21
2023-04-21T08:30:19.259Z,22.07
2023-04-21T08:35:22.451Z,21.88
2023-04-21T08:40:38.120Z,21.79
2023-04-21T08:45:41.813Z,21.28
2023-04-21T08:50:48.683Z,20.48
2023-04-21T08:56:10.191Z,19.80
2023-04-21T09:01:14.676Z,19.18
2023-04-21T09:06:18.289Z,18.57
2023-04-21T09:11:22.105Z,18.09
2023-04-21T09:16:25.039Z,17.79
2023-04-21T09:21:31.429Z,17.65
2023-04-21T09:26:37.883Z,17.58
2023-04-21T09:31:40.944Z,17.54
2023-04-21T09:36:45.908Z,17.38
2023-04-21T09:41:48.852Z,17.49
2023-04-21T09:47:03.938Z,17.53
2023-04-21T09:52:18.394Z,17.46
2023-04-21T09:57:25.825Z,17.66
2023-04-21T10:02:31.864Z,17.93
2023-04-21T10:07:35.019Z,18.13
2023-04-21T10:12:38.893Z,18.06
2023-04-21T10:17:41.897Z,18.01
2023-04-21T10:22:44.954Z,18.11
2023-04-21T10:27:47.909Z,18.07
2023-04-21T10:33:06.091Z,18.10
2023-04-21T10:38:10.036Z,18.25
2023-04-21T10:43:49.911Z,18.29
2023-04-21T10:48:53.507Z,18.38
2023-04-21T10:53:56.776Z,18.50
2023-04-21T10:59:01.377Z,18.52
2023-04-21T11:04:04.852Z,18.41
2023-04-21T11:09:08.741Z,18.50
2023-04-21T11:14:17.155Z,18.46
2023-04-21T11:19:25.342Z,18.34
2023-04-21T11:24:28.306Z,18.25
2023-04-21T11:29:31.720Z,18.18
2023-04-21T11:34:36.880Z,18.22
2023-04-21T11:39:44.403Z,18.44
2023-04-21T11:44:47.396Z,18.68
2023-04-21T11:49:51.702Z,18.68
2023-04-21T11:55:11.463Z,18.67
2023-04-21T12:00:15.788Z,18.52
2023-04-21T12:05:18.925Z,18.48
2023-04-21T12:10:22.187Z,18.61
2023-04-21T12:15:25.401Z,18.86
2023-04-21T12:20:30.106Z,18.97
2023-04-21T12:25:33.358Z,19.01
2023-04-21T12:30:39.255Z,19.03
2023-04-21T12:35:44.703Z,19.15
2023-04-21T12:40:47.707Z,19.03
2023-04-21T12:45:52.929Z,18.84
2023-04-21T12:50:55.972Z,18.86
2023-04-21T12:56:04.881Z,18.98
2023-04-21T13:01:08.870Z,19.21
2023-04-21T13:06:12.369Z,19.31
2023-04-21T13:11:15.267Z,19.02
2023-04-21T13:16:18.310Z,18.77
2023-04-21T13:21:21.403Z,18.69
2023-04-21T13:26:24.596Z,18.75
2023-04-21T13:31:27.910Z,18.92
2023-04-21T13:36:31.578Z,18.99
2023-04-21T13:41:35.273Z,19.03
2023-04-21T13:46:38.868Z,18.96
2023-04-21T13:51:42.293Z,18.94
2023-04-21T13:56:45.290Z,19.02
2023-04-21T14:01:48.452Z,19.11
2023-04-21T14:06:51.569Z,19.14
2023-04-21T14:11:55.737Z,19.15
2023-04-21T14:16:58.902Z,19.22
2023-04-21T14:22:02.506Z,19.19
2023-04-21T14:27:06.000Z,19.20
2023-04-21T14:32:09.376Z,19.10
2023-04-21T14:37:12.740Z,19.06
2023-04-21T14:42:16.146Z,19.11
2023-04-21T14:47:19.186Z,19.07
2023-04-21T14:52:24.780Z,18.93
2023-04-21T14:57:27.724Z,18.76
2023-04-21T15:02:31.214Z,18.58
2023-04-21T15:07:34.375Z,18.42
2023-04-21T15:12:38.840Z,18.28
2023-04-21T15:17:41.730Z,18.09
2023-04-21T15:22:45.012Z,17.95
2023-04-21T15:27:48.020Z,17.88
2023-04-21T15:32:50.931Z,17.74
2023-04-21T15:37:53.964Z,17.56
2023-04-21T15:42:56.848Z,17.44
2023-04-21T15:47:59.757Z,17.37
2023-04-21T15:53:08.947Z,17.38
2023-04-21T15:58:13.809Z,17.36
2023-04-21T16:03:17.351Z,17.35
2023-04-21T16:08:20.840Z,17.28
2023-04-21T16:13:23.958Z,17.21
2023-04-21T16:18:27.127Z,17.09
2023-04-21T16:23:30.427Z,16.98
2023-04-21T16:28:33.446Z,16.90
2023-04-21T16:33:36.317Z,16.81
2023-04-21T16:38:39.572Z,16.71
2023-04-21T16:43:43.452Z,16.55
2023-04-21T16:48:46.605Z,16.36
2023-04-21T16:53:49.678Z,16.14
2023-04-21T16:58:53.091Z,15.94
2023-04-21T17:03:56.096Z,15.72
2023-04-21T17:09:02.173Z,15.53
2023-04-21T17:14:05.076Z,15.35
2023-04-21T17:19:08.090Z,15.17
2023-04-21T17:24:10.986Z,14.98
2023-04-21T17:29:14.505Z,14.80
2023-04-21T17:34:17.413Z,14.61
2023-04-21T17:39:20.311Z,14.43
2023-04-21T17:44:23.217Z,14.26
2023-04-21T17:49:26.530Z,14.08
2023-04-21T17:54:29.432Z,13.90
2023-04-21T17:59:32.345Z,13.75
2023-04-21T18:04:35.611Z,13.61
2023-04-21T18:09:38.760Z,13.46
2023-04-21T18:14:41.627Z,13.30
2023-04-21T18:19:44.572Z,13.14
2023-04-21T18:24:47.479Z,12.99
2023-04-21T18:29:50.787Z,12.86
2023-04-21T18:34:54.008Z,12.71
2023-04-21T18:39:57.726Z,12.57
2023-04-21T18:45:03.200Z,12.44
2023-04-21T18:50:09.112Z,12.33
2023-04-21T18:55:16.601Z,12.19
2023-04-21T19:00:23.212Z,12.08
2023-04-21T19:05:31.086Z,11.95
2023-04-21T19:10:39.589Z,11.81
2023-04-21T19:15:44.153Z,11.67
2023-04-21T19:20:48.925Z,11.49
2023-04-21T19:25:55.212Z,11.31
2023-04-21T19:30:58.309Z,11.16
2023-04-21T19:36:02.857Z,11.05
2023-04-21T19:41:05.872Z,10.93
2023-04-21T19:46:09.721Z,10.81
2023-04-21T19:51:12.694Z,10.68
2023-04-21T19:56:16.266Z,10.55
2023-04-21T20:01:20.426Z,10.40
2023-04-21T20:06:24.014Z,10.21
2023-04-21T20:11:29.202Z,10.04
2023-04-21T20:16:33.075Z,9.86
2023-04-21T20:21:36.270Z,9.69
2023-04-21T20:26:39.485Z,9.53
2023-04-21T20:31:42.563Z,9.46
2023-04-21T20:36:45.589Z,9.34
2023-04-21T20:41:57.947Z,9.11
2023-04-21T20:47:04.646Z,8.84
2023-04-21T20:52:07.714Z,8.60
2023-04-21T20:57:12.277Z,8.43
2023-04-21T21:02:15.384Z,8.37
2023-04-21T21:07:18.579Z,8.23
2023-04-21T21:12:22.299Z,8.05
2023-04-21T21:17:25.661Z,7.90
2023-04-21T21:22:28.786Z,7.75
2023-04-21T21:27:31.928Z,7.62
2023-04-21T21:32:35.110Z,7.48
2023-04-21T21:37:38.642Z,7.37
2023-04-21T21:42:42.029Z,7.25
2023-04-21T21:47:45.911Z,7.14
2023-04-21T21:52:49.213Z,7.00
2023-04-21T21:57:52.324Z,6.83
2023-04-21T22:02:55.424Z,6.65
2023-04-21T22:07:58.549Z,6.51
2023-04-21T22:13:01.652Z,6.36
2023-04-21T22:18:05.196Z,6.23
2023-04-21T22:23:08.203Z,6.16
2023-04-21T22:28:11.389Z,6.09
2023-04-21T22:33:14.393Z,6.08
2023-04-21T22:38:17.298Z,6.05
2023-04-21T22:43:20.305Z,5.98
2023-04-21T22:48:26.484Z,5.90
2023-04-21T22:53:29.393Z,5.79
2023-04-21T22:58:32.294Z,5.67
2023-04-21T23:03:35.324Z,5.59
2023-04-21T23:08:38.616Z,5.52
2023-04-21T23:13:41.624Z,5.44
2023-04-21T23:18:44.552Z,5.37
2023-04-21T23:23:47.434Z,5.26
2023-04-21T23:28:50.437Z,5.14
2023-04-21T23:33:53.554Z,5.02
2023-04-21T23:38:56.549Z,4.89
2023-04-21T23:43:59.558Z,4.82
2023-04-21T23:49:02.587Z,4.73
2023-04-21T23:54:05.570Z,4.60
2023-04-21T23:59:08.676Z,4.45
